Time;durP1;ratioP1;P1;durP2;ratioP2;P2;SDS_P1;SDS_P2;PMS_P1;PMS_P2;Temp;Humidity;BMP_temperature;BMP_pressure;BME280_temperature;BME280_humidity;BME280_pressure;Samples;Min_cycle;Max_cycle;Signal;HPM_P1;HPM_P2
2023/09/08 00:00:50;;;;;;;10.30;4.20;;;;;;;16.63;70.64;100600.42;103496;1277;68288;-61
2023/09/08 00:03:17;;;;;;;6.70;3.50;;;;;;;16.62;70.24;100599.42;103620;1266;72391;-62
2023/09/08 00:05:45;;;;;;;6.40;4.40;;;;;;;16.61;69.84;100599.98;103928;1259;226057;-63
2023/09/08 00:08:13;;;;;;;7.50;3.90;;;;;;;16.59;69.56;100599.70;104163;1262;60352;-62
2023/09/08 00:10:40;;;;;;;7.40;3.50;;;;;;;16.57;69.70;100603.04;104275;1256;72659;-61
2023/09/08 00:13:08;;;;;;;4.90;4.00;;;;;;;16.55;69.69;100601.37;104363;1259;69059;-61
2023/09/08 00:15:36;;;;;;;7.70;3.60;;;;;;;16.49;69.97;100593.70;104080;1278;71667;-60
2023/09/08 00:18:04;;;;;;;5.20;4.00;;;;;;;16.45;69.58;100597.27;104100;1262;59866;-60
2023/09/08 00:20:32;;;;;;;6.30;3.70;;;;;;;16.40;69.38;100603.04;104088;1258;59957;-61
2023/09/08 00:23:00;;;;;;;6.40;3.70;;;;;;;16.36;69.97;100603.92;104034;1261;73288;-60
2023/09/08 00:25:27;;;;;;;7.50;3.70;;;;;;;16.30;70.85;100605.14;104054;1278;70467;-60
2023/09/08 00:27:55;;;;;;;6.90;3.90;;;;;;;16.27;71.54;100608.98;104207;1257;72717;-61
2023/09/08 00:30:23;;;;;;;7.80;3.60;;;;;;;16.24;72.17;100608.27;104296;1257;59820;-60
2023/09/08 00:32:51;;;;;;;5.30;3.80;;;;;;;16.19;72.45;100612.91;104302;1254;59868;-61
2023/09/08 00:35:19;;;;;;;;;;;;;;;16.17;72.50;100610.03;108057;1256;73699;-61
2023/09/08 00:37:46;;;;;;;8.00;3.60;;;;;;;16.20;73.38;100612.54;108020;1255;70157;-60
2023/09/08 00:40:14;;;;;;;8.20;4.10;;;;;;;16.20;73.85;100610.58;107995;1254;72308;-62
2023/09/08 00:42:42;;;;;;;7.30;4.10;;;;;;;16.20;74.32;100610.05;108077;1256;59922;-62
2023/09/08 00:45:10;;;;;;;5.50;3.70;;;;;;;16.22;73.65;100613.84;108158;1253;59707;-62
2023/09/08 00:47:37;;;;;;;6.90;3.80;;;;;;;16.22;73.32;100608.70;108138;1253;71711;-62
2023/09/08 00:50:06;;;;;;;7.00;3.50;;;;;;;16.19;73.53;100608.50;107928;1253;70210;-62
2023/09/08 00:52:33;;;;;;;5.80;3.70;;;;;;;16.18;73.57;100605.56;107951;1253;73358;-62
2023/09/08 00:55:01;;;;;;;8.40;3.80;;;;;;;16.22;73.63;100600.73;107987;1256;60722;-63
2023/09/08 00:57:29;;;;;;;4.70;3.80;;;;;;;16.26;72.39;100600.93;107951;1255;59149;-62
2023/09/08 00:59:57;;;;;;;6.40;3.80;;;;;;;16.26;71.96;100599.48;108197;1255;72878;-62
2023/09/08 01:02:24;;;;;;;9.40;4.40;;;;;;;16.24;71.74;100595.17;107829;1256;69520;-62
2023/09/08 01:04:52;;;;;;;;;;;;;;;16.27;71.30;100592.17;108148;1256;72442;-62
2023/09/08 01:07:20;;;;;;;5.20;3.40;;;;;;;16.26;70.76;100588.70;108081;1256;58873;-63
2023/09/08 01:09:48;;;;;;;9.70;3.60;;;;;;;16.23;70.47;100594.86;107738;1256;60066;-62
2023/09/08 01:12:15;;;;;;;;;;;;;;;16.26;69.55;100588.33;107859;1256;73672;-61
2023/09/08 01:14:43;;;;;;;;;;;;;;;16.22;69.87;100584.48;107997;1254;69580;-61
2023/09/08 01:17:13;;;;;;;7.20;3.60;;;;;;;16.21;70.34;100588.07;108084;1254;71747;-61
2023/09/08 01:19:41;;;;;;;4.90;3.70;;;;;;;16.22;72.16;100592.64;107912;1256;59818;-62
2023/09/08 01:22:28;;;;;;;8.90;3.80;;;;;;;16.20;73.73;100590.42;107804;1255;60056;-62
2023/09/08 01:25:03;;;;;;;6.00;3.70;;;;;;;16.15;74.92;100594.03;107985;1255;72781;-62
2023/09/08 01:27:33;;;;;;;3.30;3.00;;;;;;;16.09;74.77;100596.30;107953;1255;69178;-62
2023/09/08 01:30:05;;;;;;;9.20;3.80;;;;;;;16.04;75.04;100601.30;107958;1256;72823;-62
2023/09/08 01:32:33;;;;;;;6.50;3.80;;;;;;;16.02;74.69;100602.29;107987;1256;59868;-62
2023/09/08 01:35:00;;;;;;;4.90;3.60;;;;;;;15.95;75.65;100602.45;107827;1254;60071;-62
2023/09/08 01:37:28;;;;;;;;;;;;;;;15.91;75.66;100601.80;107931;1254;72957;-62
2023/09/08 01:39:56;;;;;;;4.20;3.30;;;;;;;15.87;76.14;100606.04;108130;1253;69128;-62
2023/09/08 01:42:23;;;;;;;4.70;3.30;;;;;;;15.86;76.02;100607.51;108079;1254;72518;-63
2023/09/08 01:44:51;;;;;;;8.20;3.70;;;;;;;15.86;76.82;100610.84;107871;1254;59739;-60
2023/09/08 01:47:19;;;;;;;6.30;3.00;;;;;;;15.85;77.67;100609.86;108067;1256;59862;-61
2023/09/08 01:49:46;;;;;;;4.30;3.30;;;;;;;15.81;77.31;100606.37;108030;1255;72834;-60
2023/09/08 01:52:14;;;;;;;7.20;4.00;;;;;;;15.80;77.14;100605.67;107868;1254;69270;-61
2023/09/08 01:54:42;;;;;;;9.20;3.70;;;;;;;15.81;77.62;100604.56;108038;1255;72655;-60
2023/09/08 01:57:09;;;;;;;7.00;3.70;;;;;;;15.83;78.41;100605.89;108166;1254;59814;-60
2023/09/08 01:59:37;;;;;;;8.00;3.40;;;;;;;15.84;79.70;100607.80;107938;1255;59762;-60
2023/09/08 02:02:05;;;;;;;5.90;3.50;;;;;;;15.85;80.16;100603.86;107847;1255;73286;-61
2023/09/08 02:04:33;;;;;;;;;;;;;;;15.86;80.23;100599.73;107930;1255;69465;-61
2023/09/08 02:07:01;;;;;;;4.90;3.60;;;;;;;15.87;79.87;100598.44;107909;1254;71956;-61
2023/09/08 02:09:35;;;;;;;6.20;3.30;;;;;;;15.85;78.58;100592.19;107906;1256;60687;-61
2023/09/08 02:12:03;;;;;;;7.70;3.60;;;;;;;15.80;78.03;100586.59;108090;1254;59691;-61
2023/09/08 02:14:31;;;;;;;4.80;3.20;;;;;;;15.81;78.83;100581.95;108145;1254;71852;-61
2023/09/08 02:16:58;;;;;;;4.30;3.60;;;;;;;15.82;78.14;100581.01;107877;1255;69250;-61
2023/09/08 02:19:26;;;;;;;5.20;3.80;;;;;;;15.80;78.07;100580.05;108030;1256;73362;-62
2023/09/08 02:21:54;;;;;;;4.50;3.70;;;;;;;15.79;78.21;100579.42;107775;1258;59816;-61
2023/09/08 02:24:22;;;;;;;;;;;;;;;15.76;79.10;100583.77;107968;1256;59670;-60
2023/09/08 02:26:49;;;;;;;3.70;3.10;;;;;;;15.74;79.91;100582.63;108046;1256;72794;-60
2023/09/08 02:29:20;;;;;;;6.20;3.40;;;;;;;15.72;79.66;100583.63;107823;1255;69288;-60
2023/09/08 02:31:48;;;;;;;5.60;4.10;;;;;;;15.71;80.30;100584.20;107930;1256;72374;-60
2023/09/08 02:34:17;;;;;;;9.20;3.70;;;;;;;15.73;80.66;100583.04;108019;1256;60798;-60
2023/09/08 02:36:47;;;;;;;6.10;3.40;;;;;;;15.75;79.99;100580.98;107829;1256;58491;-60
2023/09/08 02:39:15;;;;;;;5.10;3.40;;;;;;;15.79;80.33;100578.55;107852;1255;71745;-59
2023/09/08 02:41:43;;;;;;;4.50;3.50;;;;;;;15.82;80.03;100579.59;107945;1255;69139;-59
2023/09/08 02:44:11;;;;;;;6.90;3.70;;;;;;;15.82;79.61;100578.90;107917;1257;72927;-60
2023/09/08 02:46:38;;;;;;;8.30;4.20;;;;;;;15.77;79.40;100575.95;107927;1256;59775;-60
2023/09/08 02:49:06;;;;;;;;;;;;;;;15.75;80.38;100575.50;107826;1256;59709;-61
2023/09/08 02:51:34;;;;;;;8.80;4.00;;;;;;;15.77;81.10;100572.61;108496;1253;72787;-61
2023/09/08 02:54:02;;;;;;;9.00;3.60;;;;;;;15.75;80.27;100576.55;108522;1253;69059;-60
2023/09/08 02:56:29;;;;;;;8.90;4.00;;;;;;;15.75;81.18;100574.09;108476;1253;72534;-60
2023/09/08 02:58:57;;;;;;;6.10;4.00;;;;;;;15.77;81.64;100575.43;108381;1253;59983;-60
2023/09/08 03:01:25;;;;;;;8.60;5.10;;;;;;;15.79;82.32;100572.17;108391;1253;58861;-60
2023/09/08 03:03:52;;;;;;;;;;;;;;;15.82;82.09;100572.86;108550;1251;72861;-60
2023/09/08 03:06:21;;;;;;;9.00;4.10;;;;;;;15.81;82.74;100572.75;108533;1253;69153;-60
2023/09/08 03:08:49;;;;;;;6.70;4.80;;;;;;;15.81;82.65;100567.48;108484;1253;73323;-60
2023/09/08 03:11:16;;;;;;;6.50;4.20;;;;;;;15.83;82.75;100565.77;108496;1253;59773;-61
2023/09/08 03:13:44;;;;;;;8.30;5.10;;;;;;;15.83;82.76;100568.07;108372;1258;58855;-61
2023/09/08 03:16:12;;;;;;;8.90;4.50;;;;;;;15.83;83.09;100570.90;108581;1252;73236;-59
2023/09/08 03:18:39;;;;;;;7.40;4.60;;;;;;;15.83;82.99;100571.98;108633;1252;69098;-61
2023/09/08 03:21:10;;;;;;;5.70;3.70;;;;;;;15.84;82.74;100572.61;108560;1251;71541;-60
2023/09/08 03:23:39;;;;;;;6.60;4.20;;;;;;;15.86;82.67;100575.16;108355;1253;61396;-60
2023/09/08 03:26:07;;;;;;;7.40;3.70;;;;;;;15.88;82.91;100580.54;108416;1253;58709;-58
2023/09/08 03:28:35;;;;;;;7.50;3.80;;;;;;;15.88;82.91;100578.23;108540;1253;72814;-60
2023/09/08 03:31:03;;;;;;;6.00;4.30;;;;;;;15.84;83.12;100574.36;108610;1251;69872;-59
2023/09/08 03:33:33;;;;;;;7.00;4.60;;;;;;;15.81;83.56;100575.41;108366;1255;72755;-60
2023/09/08 03:36:01;;;;;;;8.20;4.50;;;;;;;15.80;83.73;100576.17;108271;1256;61532;-59
2023/09/08 03:38:31;;;;;;;5.50;4.30;;;;;;;15.79;84.06;100575.72;108393;1252;60346;-59
2023/09/08 03:40:59;;;;;;;5.90;4.50;;;;;;;15.76;83.90;100576.71;108408;1253;72922;-59
2023/09/08 03:43:27;;;;;;;11.10;4.90;;;;;;;15.70;84.40;100573.43;108414;1253;69368;-60
2023/09/08 03:45:54;;;;;;;;;;;;;;;15.66;85.56;100574.53;108339;1253;72689;-59
2023/09/08 03:48:22;;;;;;;;;;;;;;;15.62;86.55;100572.77;108540;1252;61611;-59
2023/09/08 03:50:52;;;;;;;7.40;4.30;;;;;;;15.60;87.30;100574.82;108466;1252;58519;-59
2023/09/08 03:53:20;;;;;;;7.50;4.40;;;;;;;15.61;87.15;100577.42;108507;1251;72724;-58
2023/09/08 03:55:47;;;;;;;5.70;4.50;;;;;;;15.66;87.43;100576.27;108594;1251;70155;-59
2023/09/08 03:58:15;;;;;;;6.30;4.70;;;;;;;15.69;87.92;100576.30;108369;1253;72347;-58
2023/09/08 04:00:43;;;;;;;7.10;4.50;;;;;;;15.71;87.94;100572.35;108593;1253;61587;-58
2023/09/08 04:03:11;;;;;;;5.40;4.40;;;;;;;15.70;88.23;100571.48;108619;1252;59671;-58
2023/09/08 04:05:38;;;;;;;;;;;;;;;15.72;88.83;100569.09;108532;1252;73596;-59
2023/09/08 04:08:06;;;;;;;;;;;;;;;15.73;89.59;100568.87;108252;1253;69452;-59
2023/09/08 04:10:34;;;;;;;8.00;4.70;;;;;;;15.75;89.99;100566.34;108448;1253;72357;-60
2023/09/08 04:13:01;;;;;;;9.20;5.00;;;;;;;15.76;88.62;100565.58;108530;1253;61384;-58
2023/09/08 04:15:29;;;;;;;9.30;5.40;;;;;;;15.79;88.26;100568.11;108171;1253;59720;-58
2023/09/08 04:17:57;;;;;;;12.10;5.50;;;;;;;15.82;88.59;100570.92;108430;1256;73672;-59
2023/09/08 04:20:25;;;;;;;7.70;4.70;;;;;;;15.86;88.93;100573.55;108184;1253;69302;-59
2023/09/08 04:22:53;;;;;;;6.30;5.50;;;;;;;15.91;89.49;100569.60;108172;1253;71287;-59
2023/09/08 04:25:21;;;;;;;8.60;4.90;;;;;;;15.95;89.77;100568.15;108466;1252;60204;-61
2023/09/08 04:27:49;;;;;;;9.80;4.50;;;;;;;15.99;90.29;100570.25;108570;1252;58752;-59
2023/09/08 04:30:19;;;;;;;6.60;4.70;;;;;;;16.04;90.47;100568.96;108600;1251;74490;-58
2023/09/08 04:32:47;;;;;;;11.40;5.10;;;;;;;16.09;91.09;100569.94;108541;1251;68297;-59
2023/09/08 04:35:15;;;;;;;7.30;4.70;;;;;;;16.16;91.25;100572.58;108408;1251;72102;-59
2023/09/08 04:37:42;;;;;;;8.20;4.80;;;;;;;16.22;91.09;100571.60;108604;1251;61981;-59
2023/09/08 04:40:14;;;;;;;6.40;4.70;;;;;;;16.26;91.67;100577.38;108447;1251;59730;-58
2023/09/08 04:42:42;;;;;;;5.80;4.20;;;;;;;16.31;91.74;100576.41;108482;1251;73858;-60
2023/09/08 04:45:10;;;;;;;6.30;4.10;;;;;;;16.38;91.78;100572.69;108285;1251;69153;-59
2023/09/08 04:47:38;;;;;;;7.60;4.20;;;;;;;16.44;91.50;100573.79;108458;1253;73177;-59
2023/09/08 04:50:06;;;;;;;7.00;4.30;;;;;;;16.52;91.28;100572.84;108304;1254;60572;-59
2023/09/08 04:52:34;;;;;;;6.70;4.40;;;;;;;16.58;90.89;100572.01;108298;1251;60082;-61
2023/09/08 04:55:03;;;;;;;6.20;4.50;;;;;;;16.63;90.42;100569.77;108400;1251;73659;-59
2023/09/08 04:57:31;;;;;;;;;;;;;;;16.69;90.01;100564.84;108542;1251;69064;-59
2023/09/08 04:59:59;;;;;;;;;;;;;;;16.77;89.98;100564.64;108534;1251;72697;-59
2023/09/08 05:02:26;;;;;;;;;;;;;;;16.84;89.83;100565.34;108539;1253;61751;-59
2023/09/08 05:04:54;;;;;;;6.60;4.20;;;;;;;16.92;89.10;100561.33;108503;1253;59523;-59
2023/09/08 05:07:22;;;;;;;6.00;4.40;;;;;;;17.00;88.11;100560.40;108172;1253;72941;-59
2023/09/08 05:09:50;;;;;;;8.10;4.60;;;;;;;17.07;87.66;100558.72;108507;1253;70334;-59
2023/09/08 05:12:18;;;;;;;7.60;4.30;;;;;;;17.18;87.13;100556.54;108023;1253;72334;-59
2023/09/08 05:14:46;;;;;;;5.60;4.40;;;;;;;17.29;86.84;100557.21;108510;1253;60883;-59
2023/09/08 05:17:14;;;;;;;7.40;4.30;;;;;;;17.38;86.56;100551.52;108435;1253;58845;-58
2023/09/08 05:19:42;;;;;;;7.60;4.30;;;;;;;17.49;86.23;100548.77;108211;1252;72252;-59
2023/09/08 05:22:09;;;;;;;6.80;3.70;;;;;;;17.58;86.37;100549.88;108210;1253;69116;-58
2023/09/08 05:24:37;;;;;;;;;;;;;;;17.68;86.50;100549.85;108178;1253;72479;-59
2023/09/08 05:27:05;;;;;;;14.80;4.70;;;;;;;17.77;86.40;100546.49;108383;1253;61532;-59
2023/09/08 05:29:33;;;;;;;7.20;4.40;;;;;;;17.86;85.41;100553.59;108394;1253;60517;-59
2023/09/08 05:32:00;;;;;;;7.40;4.30;;;;;;;17.95;84.79;100556.44;108198;1253;74111;-59
2023/09/08 05:34:28;;;;;;;11.90;5.80;;;;;;;18.06;85.24;100556.84;108380;1252;69099;-59
2023/09/08 05:39:59;;;;;;;9.00;4.80;;;;;;;18.25;83.34;100551.27;101393;1295;601954;-58
2023/09/08 05:42:32;;;;;;;9.90;5.10;;;;;;;18.30;82.18;100549.41;104254;1257;60686;-58
2023/09/08 05:45:00;;;;;;;7.40;4.20;;;;;;;18.38;82.44;100541.06;104130;1260;59672;-58
2023/09/08 05:47:28;;;;;;;9.40;4.40;;;;;;;18.46;81.78;100538.63;104319;1258;72491;-58
2023/09/08 05:49:57;;;;;;;9.80;5.50;;;;;;;18.56;80.14;100536.98;104280;1277;69118;-57
2023/09/08 05:52:27;;;;;;;8.50;4.50;;;;;;;18.64;78.99;100539.85;104083;1260;72472;-58
2023/09/08 05:54:55;;;;;;;7.00;4.40;;;;;;;18.75;77.50;100542.02;104160;1253;60509;-58
2023/09/08 05:57:23;;;;;;;4.80;3.60;;;;;;;18.85;77.08;100542.86;104343;1254;59651;-58
2023/09/08 05:59:51;;;;;;;;;;;;;;;18.92;75.13;100538.30;104294;1258;70743;-58
2023/09/08 06:02:19;;;;;;;5.30;3.90;;;;;;;19.01;74.45;100535.42;104296;1260;69603;-58
2023/09/08 06:04:47;;;;;;;6.80;3.60;;;;;;;19.08;73.14;100535.16;104261;1276;72946;-58
2023/09/08 06:07:16;;;;;;;8.20;4.10;;;;;;;19.17;72.74;100531.58;104256;1273;60314;-58
2023/09/08 06:09:44;;;;;;;7.90;3.50;;;;;;;19.27;72.80;100533.61;104288;1259;59805;-58
2023/09/08 06:12:11;;;;;;;;;;;;;;;19.35;72.00;100533.95;104358;1254;72876;-58
2023/09/08 06:14:39;;;;;;;10.40;3.20;;;;;;;19.47;71.27;100527.67;105742;1254;70866;-58
2023/09/08 06:17:10;;;;;;;5.90;3.10;;;;;;;19.53;70.68;100525.67;104236;1276;72369;-58
2023/09/08 06:19:41;;;;;;;7.20;3.70;;;;;;;19.59;68.47;100524.18;104268;1258;60915;-59
2023/09/08 06:22:09;;;;;;;11.90;4.50;;;;;;;19.69;67.75;100521.08;104366;1255;59753;-58
2023/09/08 06:24:37;;;;;;;;;;;;;;;19.78;67.05;100519.02;104334;1256;73278;-59
2023/09/08 06:27:05;;;;;;;13.70;2.90;;;;;;;19.89;65.76;100522.79;104315;1258;69380;-58
2023/09/08 06:29:34;;;;;;;15.70;3.30;;;;;;;19.95;65.03;100522.17;104251;1261;73611;-59
2023/09/08 06:32:01;;;;;;;;;;;;;;;20.07;63.92;100526.14;108417;1252;60172;-59
2023/09/08 06:34:29;;;;;;;6.70;3.10;;;;;;;20.19;62.77;100523.54;108372;1252;59583;-59
2023/09/08 06:36:57;;;;;;;;;;;;;;;20.28;62.48;100519.35;108226;1255;72767;-59
2023/09/08 06:39:25;;;;;;;5.40;2.60;;;;;;;20.39;61.11;100516.67;108332;1252;69248;-59
2023/09/08 06:41:53;;;;;;;6.20;2.60;;;;;;;20.47;61.32;100510.38;108584;1252;72962;-59
2023/09/08 06:44:21;;;;;;;6.10;2.70;;;;;;;20.58;61.05;100510.13;108320;1254;59760;-59
2023/09/08 06:46:49;;;;;;;6.40;2.70;;;;;;;20.69;59.56;100505.69;108471;1252;59751;-59
2023/09/08 06:49:17;;;;;;;6.70;2.60;;;;;;;20.78;59.16;100506.64;108464;1253;75539;-59
2023/09/08 06:51:48;;;;;;;3.80;2.50;;;;;;;20.89;58.21;100505.13;108500;1252;69592;-58
2023/09/08 06:54:16;;;;;;;5.20;2.70;;;;;;;20.96;56.65;100505.10;108397;1253;72171;-58
2023/09/08 06:56:43;;;;;;;;;;;;;;;21.08;56.05;100506.45;108466;1253;60774;-59
2023/09/08 06:59:11;;;;;;;;;;;;;;;21.16;55.98;100504.38;108328;1253;58549;-59
2023/09/08 07:01:41;;;;;;;;;;;;;;;21.25;56.35;100499.10;108504;1253;72110;-59
2023/09/08 07:04:10;;;;;;;4.70;2.60;;;;;;;21.34;55.35;100498.59;108528;1252;68994;-59
2023/09/08 07:06:41;;;;;;;6.80;3.30;;;;;;;21.46;55.50;100497.96;108426;1253;72360;-59
2023/09/08 07:09:10;;;;;;;5.00;3.20;;;;;;;21.56;55.22;100496.63;108261;1253;60786;-59
2023/09/08 07:11:38;;;;;;;5.50;3.20;;;;;;;21.67;55.28;100497.45;108179;1253;59721;-59
2023/09/08 07:14:06;;;;;;;7.50;3.20;;;;;;;21.79;55.10;100497.77;108152;1252;72766;-59
2023/09/08 07:16:34;;;;;;;9.30;2.80;;;;;;;21.90;53.74;100502.66;108267;1253;68331;-59
2023/09/08 07:19:01;;;;;;;;;;;;;;;21.98;53.49;100504.23;108281;1253;73398;-59
2023/09/08 07:21:29;;;;;;;9.70;2.50;;;;;;;22.08;53.08;100498.95;108265;1255;59904;-59
2023/09/08 07:23:58;;;;;;;;;;;;;;;22.20;54.27;100501.63;108340;1252;59682;-59
2023/09/08 07:26:26;;;;;;;5.60;2.60;;;;;;;22.31;52.07;100501.69;108310;1253;72846;-59
2023/09/08 07:28:54;;;;;;;;;;;;;;;22.37;51.12;100494.44;108334;1252;68190;-59
2023/09/08 07:31:21;;;;;;;;;;;;;;;22.45;51.25;100497.16;108331;1253;73827;-59
2023/09/08 07:33:50;;;;;;;3.90;2.40;;;;;;;22.55;50.89;100494.38;108406;1253;60204;-59
2023/09/08 07:36:18;;;;;;;6.50;2.50;;;;;;;22.66;50.54;100489.63;108433;1252;59989;-59
2023/09/08 07:38:46;;;;;;;;;;;;;;;22.72;49.71;100489.64;108259;1253;72467;-59
2023/09/08 07:41:14;;;;;;;3.00;2.10;;;;;;;22.79;48.47;100486.59;108379;1253;69632;-59
2023/09/08 07:43:45;;;;;;;6.30;2.20;;;;;;;22.83;48.69;100482.71;108248;1253;72702;-59
2023/09/08 07:46:13;;;;;;;5.30;2.10;;;;;;;22.90;47.95;100480.70;108182;1254;60146;-59
2023/09/08 07:48:41;;;;;;;4.10;2.00;;;;;;;22.97;47.56;100477.13;108433;1252;59720;-59
2023/09/08 07:51:09;;;;;;;3.50;1.90;;;;;;;23.03;47.26;100478.73;108481;1254;72820;-59
2023/09/08 07:53:37;;;;;;;3.20;1.90;;;;;;;23.06;46.14;100472.83;108402;1253;68428;-59
2023/09/08 07:56:04;;;;;;;9.60;2.00;;;;;;;23.10;45.55;100468.91;108426;1252;72526;-60
2023/09/08 07:58:32;;;;;;;4.80;2.00;;;;;;;23.16;45.66;100465.23;108400;1254;59776;-59
2023/09/08 08:01:01;;;;;;;3.80;1.70;;;;;;;23.23;45.92;100463.70;108459;1252;59843;-59
2023/09/08 08:03:29;;;;;;;;;;;;;;;23.30;45.73;100461.14;108489;1253;72606;-59
2023/09/08 08:05:56;;;;;;;5.10;1.40;;;;;;;23.33;44.66;100453.98;108571;1253;69137;-59
2023/09/08 08:08:24;;;;;;;4.90;1.60;;;;;;;23.31;44.79;100454.88;108408;1254;72325;-59
2023/09/08 08:10:52;;;;;;;;;;;;;;;23.44;46.35;100449.64;108413;1252;59912;-58
2023/09/08 08:13:19;;;;;;;3.90;1.50;;;;;;;23.56;44.88;100444.39;108359;1254;59513;-59
2023/09/08 08:15:47;;;;;;;2.80;1.30;;;;;;;23.64;43.87;100446.56;108347;1253;72757;-60
2023/09/08 08:18:17;;;;;;;3.40;1.50;;;;;;;23.72;45.06;100444.05;108428;1253;69489;-62
2023/09/08 08:20:45;;;;;;;3.40;2.00;;;;;;;23.78;44.02;100445.38;108422;1254;72563;-62
2023/09/08 08:23:13;;;;;;;5.00;1.70;;;;;;;23.84;43.50;100441.13;108469;1254;59757;-62
2023/09/08 08:25:41;;;;;;;6.50;1.60;;;;;;;23.91;44.29;100435.64;108339;1253;59657;-62
2023/09/08 08:28:09;;;;;;;2.70;1.30;;;;;;;24.01;44.19;100427.44;108441;1253;73034;-62
2023/09/08 08:30:36;;;;;;;3.20;1.60;;;;;;;24.12;44.39;100429.70;108442;1253;69484;-62
2023/09/08 08:33:04;;;;;;;;;;;;;;;24.23;42.97;100426.27;108536;1253;73330;-62
2023/09/08 08:35:32;;;;;;;;;;;;;;;24.26;42.14;100424.20;108550;1253;61159;-62
2023/09/08 08:38:02;;;;;;;4.30;1.60;;;;;;;24.27;42.09;100417.87;108425;1254;59582;-62
2023/09/08 08:40:30;;;;;;;4.10;1.20;;;;;;;24.29;42.46;100417.48;108473;1254;73117;-62
2023/09/08 08:42:58;;;;;;;1.70;1.40;;;;;;;24.32;42.12;100414.69;108443;1254;68649;-62
2023/09/08 08:45:29;;;;;;;5.00;1.30;;;;;;;24.34;42.01;100415.23;108541;1253;72505;-61
2023/09/08 08:47:56;;;;;;;;;;;;;;;24.36;41.36;100414.36;108132;1254;59748;-62
2023/09/08 08:50:24;;;;;;;;;;;;;;;24.38;40.32;100411.13;108254;1254;59810;-61
2023/09/08 08:52:54;;;;;;;2.10;1.40;;;;;;;24.42;41.55;100414.33;108555;1253;73263;-62
2023/09/08 08:55:23;;;;;;;;;;;;;;;24.52;40.92;100410.81;108215;1253;69426;-62
2023/09/08 08:57:51;;;;;;;3.10;1.60;;;;;;;24.59;41.07;100409.29;108527;1253;73321;-61
2023/09/08 09:00:18;;;;;;;2.90;1.20;;;;;;;24.59;40.78;100409.66;108222;1254;59894;-62
2023/09/08 09:02:48;;;;;;;;;;;;;;;24.64;40.87;100404.70;108575;1252;59851;-62
2023/09/08 09:05:36;;;;;;;4.20;1.60;;;;;;;24.76;40.60;100408.33;108544;1253;73265;-62
2023/09/08 09:08:05;;;;;;;4.50;1.80;;;;;;;24.86;40.11;100400.58;107966;1253;69874;-62
2023/09/08 09:10:32;;;;;;;3.90;2.00;;;;;;;24.91;39.23;100398.53;108213;1254;72895;-62
2023/09/08 09:13:00;;;;;;;2.80;1.70;;;;;;;24.95;39.23;100395.50;108399;1254;60764;-62
2023/09/08 09:15:31;;;;;;;;;;;;;;;25.01;39.37;100392.97;108387;1253;60354;-64
2023/09/08 09:18:06;;;;;;;4.70;1.90;;;;;;;25.05;38.93;100390.64;108547;1253;73089;-63
2023/09/08 09:20:34;;;;;;;4.80;1.90;;;;;;;25.10;39.47;100390.05;108477;1253;68860;-65
2023/09/08 09:23:03;;;;;;;2.00;1.40;;;;;;;25.15;39.42;100384.16;108442;1254;73437;-64
2023/09/08 09:25:31;;;;;;;2.20;1.80;;;;;;;25.21;39.52;100383.92;108204;1254;60405;-64
2023/09/08 09:28:00;;;;;;;4.50;1.80;;;;;;;25.27;38.86;100379.17;108581;1253;60104;-63
2023/09/08 09:30:43;;;;;;;4.90;1.80;;;;;;;25.28;38.67;100375.46;108416;1253;73258;-64
2023/09/08 09:33:11;;;;;;;2.20;1.90;;;;;;;25.32;39.42;100378.48;108015;1254;70252;-64
2023/09/08 09:35:54;;;;;;;5.70;1.90;;;;;;;25.42;39.13;100373.02;108551;1253;72475;-66
2023/09/08 09:38:22;;;;;;;1.80;1.50;;;;;;;25.55;38.80;100372.18;108415;1253;59769;-63
2023/09/08 09:40:52;;;;;;;4.70;2.60;;;;;;;25.64;37.91;100369.42;108556;1252;59655;-63
2023/09/08 09:43:20;;;;;;;3.00;1.90;;;;;;;25.71;38.69;100370.67;108513;1253;72791;-63
2023/09/08 09:45:48;;;;;;;2.10;1.90;;;;;;;25.78;38.11;100367.98;108503;1252;70181;-62
2023/09/08 09:48:16;;;;;;;5.70;2.00;;;;;;;25.79;37.88;100366.86;108565;1253;71189;-63
2023/09/08 09:50:44;;;;;;;2.20;1.80;;;;;;;25.75;36.68;100361.52;108183;1253;59812;-63
2023/09/08 09:53:13;;;;;;;3.10;2.00;;;;;;;25.77;37.12;100355.55;108498;1252;60336;-64
2023/09/08 09:55:43;;;;;;;3.80;1.80;;;;;;;25.83;37.12;100350.52;108527;1252;73672;-63
2023/09/08 09:58:11;;;;;;;2.10;1.70;;;;;;;25.79;36.04;100348.56;108558;1252;70115;-64
2023/09/08 10:00:45;;;;;;;2.80;1.70;;;;;;;25.79;36.37;100341.40;108580;1252;72397;-64
2023/09/08 10:03:14;;;;;;;4.70;1.80;;;;;;;25.84;36.96;100335.38;108501;1253;60425;-64
2023/09/08 10:05:43;;;;;;;2.00;1.50;;;;;;;25.90;36.84;100334.27;108594;1253;59714;-64
2023/09/08 10:08:10;;;;;;;4.90;1.80;;;;;;;25.90;36.11;100331.92;108267;1253;73776;-65
2023/09/08 10:10:38;;;;;;;2.50;2.00;;;;;;;25.95;36.00;100331.30;108601;1252;70039;-65
2023/09/08 10:13:06;;;;;;;3.40;1.60;;;;;;;25.97;35.66;100328.73;108214;1253;72452;-61
2023/09/08 10:15:37;;;;;;;4.30;1.50;;;;;;;26.04;35.48;100325.84;108452;1253;59880;-63
2023/09/08 10:18:05;;;;;;;8.80;1.50;;;;;;;26.16;35.90;100330.80;108487;1253;59688;-62
2023/09/08 10:20:34;;;;;;;4.30;1.30;;;;;;;26.27;35.41;100325.14;108564;1253;72795;-60
2023/09/08 10:23:06;;;;;;;3.00;1.60;;;;;;;26.32;34.54;100319.91;108520;1253;69214;-60
2023/09/08 10:25:38;;;;;;;2.70;1.60;;;;;;;26.37;34.03;100307.02;108220;1253;72335;-61
2023/09/08 10:28:07;;;;;;;4.10;1.50;;;;;;;26.41;34.15;100304.27;108204;1253;59759;-59
2023/09/08 10:30:35;;;;;;;1.40;1.20;;;;;;;26.45;34.36;100300.73;108306;1253;59669;-60
2023/09/08 10:33:03;;;;;;;;;;;;;;;26.48;34.33;100298.63;108458;1253;74056;-59
2023/09/08 10:35:30;;;;;;;3.10;1.50;;;;;;;26.50;33.42;100294.10;108525;1251;69004;-60
2023/09/08 10:38:26;;;;;;;3.90;1.70;;;;;;;26.53;32.98;100296.48;108523;1251;72994;-60
2023/09/08 10:41:16;;;;;;;3.40;1.60;;;;;;;26.55;33.45;100284.98;108584;1252;60096;-60
2023/09/08 10:43:45;;;;;;;2.50;1.70;;;;;;;26.64;34.07;100287.88;108602;1253;60032;-60
2023/09/08 10:46:23;;;;;;;3.90;2.00;;;;;;;26.74;33.68;100285.90;108583;1252;74060;-61
2023/09/08 10:48:55;;;;;;;4.30;1.70;;;;;;;26.81;33.16;100279.83;108582;1252;70130;-61
2023/09/08 10:51:23;;;;;;;2.60;1.80;;;;;;;26.89;33.36;100281.08;108585;1251;71627;-60
2023/09/08 10:53:50;;;;;;;2.10;1.80;;;;;;;26.93;32.27;100268.23;108144;1253;59878;-61
2023/09/08 10:56:21;;;;;;;4.10;2.10;;;;;;;26.93;33.22;100265.19;108580;1252;60733;-61
2023/09/08 10:58:52;;;;;;;3.90;2.20;;;;;;;26.97;33.24;100271.16;108592;1251;73570;-60
2023/09/08 11:01:27;;;;;;;2.50;2.30;;;;;;;27.02;32.19;100269.80;108585;1251;70175;-60
2023/09/08 11:03:56;;;;;;;3.50;2.30;;;;;;;27.03;32.78;100263.81;108697;1252;72304;-59
2023/09/08 11:06:30;;;;;;;3.70;2.20;;;;;;;27.07;33.15;100263.58;108575;1253;60230;-59
2023/09/08 11:08:58;;;;;;;5.10;2.00;;;;;;;27.17;33.18;100260.11;108522;1254;59699;-60
2023/09/08 11:11:25;;;;;;;;;;;;;;;27.27;32.87;100255.61;108184;1251;73716;-60
2023/09/08 11:13:53;;;;;;;2.90;2.00;;;;;;;27.35;32.55;100245.67;108546;1252;69212;-60
2023/09/08 11:16:26;;;;;;;;;;;;;;;27.42;32.67;100249.02;108524;1252;73360;-60
2023/09/08 11:18:55;;;;;;;1.80;1.50;;;;;;;27.43;32.24;100248.73;108629;1251;59754;-59
2023/09/08 11:21:23;;;;;;;;;;;;;;;27.42;32.65;100242.85;108610;1252;58854;-60
2023/09/08 11:23:50;;;;;;;;;;;;;;;27.48;32.23;100237.06;108463;1251;73821;-59
2023/09/08 11:26:18;;;;;;;1.60;1.40;;;;;;;27.52;32.66;100234.20;108600;1251;69423;-60
2023/09/08 11:28:49;;;;;;;2.80;1.60;;;;;;;27.61;31.80;100226.47;108438;1251;73360;-60
2023/09/08 11:31:16;;;;;;;1.80;1.40;;;;;;;27.63;31.26;100222.35;108410;1253;60278;-59
2023/09/08 11:33:44;;;;;;;;;;;;;;;27.67;31.04;100221.02;108583;1252;59929;-59
2023/09/08 11:36:16;;;;;;;2.60;1.50;;;;;;;27.68;30.69;100215.80;108396;1253;73336;-59